Time;durP1;ratioP1;P1;durP2;ratioP2;P2;SDS_P1;SDS_P2;PMS_P1;PMS_P2;Temp;Humidity;BMP_temperature;BMP_pressure;BME280_temperature;BME280_humidity;BME280_pressure;Samples;Min_cycle;Max_cycle;Signal;HPM_P1;HPM_P2
2022/07/20 04:02:31;;;;;;;7.60;6.93;;;22.60;65.20;;;;;;5008127;23;20501;-65
2022/07/20 04:04:57;;;;;;;6.87;6.23;;;22.60;65.70;;;;;;4975859;28;20509;-65
2022/07/20 04:07:24;;;;;;;8.53;7.63;;;22.60;65.80;;;;;;4975698;28;20461;-65
2022/07/20 04:09:51;;;;;;;7.97;7.20;;;22.60;65.70;;;;;;4975285;28;20831;-65
2022/07/20 04:12:20;;;;;;;11.30;6.70;;;22.60;66.20;;;;;;4975921;28;20481;-65
2022/07/20 04:14:49;;;;;;;8.10;7.40;;;22.60;67.20;;;;;;4975648;28;20478;-64
2022/07/20 04:17:17;;;;;;;11.77;7.27;;;22.60;67.80;;;;;;4975641;28;20821;-65
2022/07/20 04:19:45;;;;;;;8.50;6.80;;;22.60;67.10;;;;;;4975748;28;20458;-64
2022/07/20 04:22:12;;;;;;;8.20;6.57;;;22.60;67.50;;;;;;4976303;28;20811;-64
2022/07/20 04:24:39;;;;;;;7.00;6.27;;;22.60;68.00;;;;;;4975634;28;20450;-64
2022/07/20 04:27:06;;;;;;;10.00;7.10;;;22.60;67.90;;;;;;4975350;28;20458;-65
2022/07/20 04:29:33;;;;;;;10.17;6.80;;;22.60;68.10;;;;;;4976167;28;20458;-65
2022/07/20 04:32:00;;;;;;;7.67;6.70;;;22.70;68.50;;;;;;4976285;28;20487;-65
2022/07/20 04:34:27;;;;;;;6.40;5.83;;;22.70;68.20;;;;;;4975499;28;20478;-65
2022/07/20 04:36:56;;;;;;;6.13;5.53;;;22.60;67.10;;;;;;4975766;28;20455;-65
2022/07/20 04:39:23;;;;;;;6.67;6.03;;;22.70;67.30;;;;;;4975388;28;20941;-65
2022/07/20 04:41:50;;;;;;;10.07;7.10;;;22.70;67.30;;;;;;4975680;28;20479;-65
2022/07/20 04:44:16;;;;;;;6.50;5.77;;;22.60;67.10;;;;;;4975664;28;20451;-66
2022/07/20 04:46:43;;;;;;;7.17;6.57;;;22.60;67.40;;;;;;4975514;28;20451;-65
2022/07/20 04:49:11;;;;;;;8.40;7.27;;;22.60;67.70;;;;;;4975536;28;20980;-66
2022/07/20 04:51:38;;;;;;;7.60;6.90;;;22.60;68.00;;;;;;4975562;28;20485;-65
2022/07/20 04:54:06;;;;;;;6.73;6.23;;;22.60;68.20;;;;;;4975618;28;20481;-66
2022/07/20 04:56:33;;;;;;;7.10;5.70;;;22.70;69.40;;;;;;4975493;28;20461;-66
2022/07/20 04:59:00;;;;;;;11.07;6.13;;;22.70;70.40;;;;;;4975692;28;20461;-66
2022/07/20 05:01:27;;;;;;;6.47;5.87;;;22.70;69.20;;;;;;4975520;28;20509;-66
2022/07/20 05:03:54;;;;;;;6.40;5.80;;;22.70;72.90;;;;;;4975992;28;20461;-67
2022/07/20 05:06:20;;;;;;;7.27;6.57;;;22.70;69.30;;;;;;4976015;28;20447;-66
2022/07/20 05:08:47;;;;;;;8.80;6.73;;;22.70;70.40;;;;;;4978759;28;20454;-66
2022/07/20 05:11:16;;;;;;;11.13;6.70;;;22.80;72.30;;;;;;4978975;28;21008;-67
2022/07/20 05:13:42;;;;;;;8.20;7.40;;;22.80;70.90;;;;;;4979345;28;20968;-67
2022/07/20 05:16:10;;;;;;;10.60;7.10;;;22.80;70.00;;;;;;4979039;28;20817;-66
2022/07/20 05:18:37;;;;;;;10.00;6.60;;;22.80;70.30;;;;;;4979240;28;20458;-66
2022/07/20 05:21:04;;;;;;;8.13;6.60;;;22.90;71.50;;;;;;4978695;28;20474;-66
2022/07/20 05:23:31;;;;;;;15.80;7.77;;;22.90;71.20;;;;;;4980522;28;20461;-66
2022/07/20 05:25:58;;;;;;;18.77;6.90;;;23.00;70.50;;;;;;4985870;28;20451;-67
2022/07/20 05:28:26;;;;;;;6.37;5.77;;;23.10;70.90;;;;;;4986978;28;20454;-65
2022/07/20 05:30:52;;;;;;;6.90;6.00;;;23.20;70.90;;;;;;4982010;28;20498;-66
2022/07/20 05:33:19;;;;;;;9.80;6.80;;;23.20;70.10;;;;;;4982172;28;20949;-66
2022/07/20 05:35:46;;;;;;;11.20;6.43;;;23.30;69.90;;;;;;4982362;28;20467;-66
2022/07/20 05:38:13;;;;;;;8.10;5.40;;;23.50;70.60;;;;;;4980641;28;20454;-66
2022/07/20 05:40:40;;;;;;;6.67;5.97;;;23.70;70.20;;;;;;4979257;28;20982;-66
2022/07/20 05:43:06;;;;;;;7.57;6.93;;;23.80;69.70;;;;;;4986032;28;20455;-67
2022/07/20 05:45:35;;;;;;;8.33;6.30;;;24.10;69.90;;;;;;4990027;28;20457;-66
2022/07/20 05:48:02;;;;;;;6.73;6.03;;;24.20;69.40;;;;;;4983663;28;20465;-65
2022/07/20 05:50:29;;;;;;;5.50;5.00;;;24.30;68.70;;;;;;4981093;28;20454;-65
2022/07/20 05:52:56;;;;;;;8.90;6.17;;;24.40;68.60;;;;;;4979151;28;20457;-65
2022/07/20 05:55:22;;;;;;;7.37;6.60;;;24.50;68.20;;;;;;4978370;28;20478;-65
2022/07/20 05:57:49;;;;;;;13.17;6.80;;;24.50;68.20;;;;;;4978325;28;20454;-67
2022/07/20 06:00:17;;;;;;;10.60;7.10;;;24.50;68.60;;;;;;4978041;28;20461;-67
2022/07/20 06:02:45;;;;;;;6.27;5.77;;;24.60;68.30;;;;;;4978279;28;20531;-67
2022/07/20 06:05:12;;;;;;;8.23;5.80;;;24.70;68.00;;;;;;4978136;28;20455;-67
2022/07/20 06:07:38;;;;;;;6.63;6.17;;;24.70;68.20;;;;;;4977898;28;20454;-67
2022/07/20 06:10:06;;;;;;;7.30;5.93;;;24.90;68.90;;;;;;4978148;28;20481;-67
2022/07/20 06:12:33;;;;;;;14.23;6.27;;;25.00;69.30;;;;;;4977732;28;20982;-67
2022/07/20 06:15:00;;;;;;;9.10;6.33;;;25.10;68.70;;;;;;4977589;28;20486;-66
2022/07/20 06:17:33;;;;;;;7.07;6.37;;;25.20;68.30;;;;;;4977558;28;20466;-66
2022/07/20 06:20:06;;;;;;;7.07;6.47;;;25.30;67.60;;;;;;4977585;28;20466;-66
2022/07/20 06:22:33;;;;;;;6.90;6.03;;;25.30;66.60;;;;;;4977483;28;20485;-66
2022/07/20 06:25:00;;;;;;;6.30;5.67;;;25.40;66.00;;;;;;4977601;28;20462;-67
2022/07/20 06:27:27;;;;;;;6.37;5.77;;;25.50;65.80;;;;;;4977382;28;20544;-66
2022/07/20 06:29:54;;;;;;;6.72;5.60;;;25.70;66.20;;;;;;4976826;28;20469;-66
2022/07/20 06:32:20;;;;;;;7.80;5.93;;;26.00;66.50;;;;;;4977252;28;20223;-66
2022/07/20 06:34:47;;;;;;;6.90;6.30;;;26.30;65.10;;;;;;4977358;28;20602;-66
2022/07/20 06:37:15;;;;;;;8.07;5.17;;;26.40;63.70;;;;;;4977118;28;20466;-66
2022/07/20 06:39:42;;;;;;;6.23;5.60;;;26.70;63.20;;;;;;4977343;28;20459;-66
2022/07/20 06:42:09;;;;;;;8.60;5.50;;;26.70;62.10;;;;;;4977244;28;20486;-66
2022/07/20 06:44:35;;;;;;;9.37;6.20;;;26.80;61.60;;;;;;4977258;28;20823;-67
2022/07/20 06:47:02;;;;;;;5.93;5.53;;;26.90;61.70;;;;;;4976927;28;20813;-67
2022/07/20 06:49:29;;;;;;;7.30;6.33;;;27.20;61.60;;;;;;4977473;28;20454;-66
2022/07/20 06:51:56;;;;;;;7.07;5.73;;;27.40;60.70;;;;;;4977269;28;20878;-67
2022/07/20 06:54:24;;;;;;;6.27;5.70;;;27.90;61.00;;;;;;4976933;28;20513;-67
2022/07/20 06:56:51;;;;;;;8.20;5.30;;;28.40;59.30;;;;;;4976983;28;20470;-67
2022/07/20 06:59:18;;;;;;;7.47;6.40;;;28.90;59.20;;;;;;4976589;28;20824;-67
2022/07/20 07:01:45;;;;;;;7.17;6.00;;;29.50;58.00;;;;;;4976452;28;20494;-66
2022/07/20 07:04:11;;;;;;;8.77;5.53;;;30.20;56.30;;;;;;4981166;28;20458;-67
2022/07/20 07:06:38;;;;;;;9.10;5.70;;;30.70;55.10;;;;;;4986248;28;20451;-67
2022/07/20 07:09:05;;;;;;;5.97;5.43;;;31.20;54.60;;;;;;4983361;28;20458;-67
2022/07/20 07:11:33;;;;;;;10.83;6.07;;;31.80;53.70;;;;;;4983332;28;20550;-66
2022/07/20 07:14:00;;;;;;;5.77;5.23;;;32.30;53.00;;;;;;4982860;28;20454;-67
2022/07/20 07:16:27;;;;;;;5.73;5.33;;;32.70;52.40;;;;;;4981081;28;20474;-67
2022/07/20 07:18:54;;;;;;;6.57;5.90;;;32.80;51.50;;;;;;4976448;28;20556;-68
2022/07/20 07:21:20;;;;;;;6.93;5.50;;;33.10;51.90;;;;;;4990583;28;20478;-66
2022/07/20 07:23:49;;;;;;;5.83;5.33;;;33.30;51.70;;;;;;4991204;28;20450;-67
2022/07/20 07:26:16;;;;;;;9.10;6.00;;;33.70;50.60;;;;;;4985997;28;20479;-67
2022/07/20 07:28:44;;;;;;;10.43;6.90;;;33.40;49.50;;;;;;4980021;28;20450;-67
2022/07/20 07:31:11;;;;;;;9.83;6.67;;;33.40;49.70;;;;;;4975402;28;20474;-67
2022/07/20 07:33:38;;;;;;;6.33;5.50;;;33.70;50.40;;;;;;4975692;28;20937;-67
2022/07/20 07:36:06;;;;;;;5.97;5.37;;;34.20;49.90;;;;;;4975528;28;20485;-67
2022/07/20 07:38:33;;;;;;;11.93;6.00;;;34.70;47.70;;;;;;4975504;28;20454;-66
2022/07/20 07:41:00;;;;;;;7.93;7.17;;;35.00;47.30;;;;;;4975368;28;21008;-66
2022/07/20 07:43:27;;;;;;;8.10;6.10;;;35.30;47.30;;;;;;4975815;28;20461;-67
2022/07/20 07:45:55;;;;;;;7.73;6.73;;;35.50;46.10;;;;;;4975858;28;20461;-67
2022/07/20 07:48:22;;;;;;;6.93;5.87;;;35.80;45.50;;;;;;4975736;28;20458;-67
2022/07/20 07:50:49;;;;;;;7.17;6.30;;;35.90;44.70;;;;;;4975615;28;20478;-66
2022/07/20 07:53:15;;;;;;;11.20;6.90;;;35.90;45.00;;;;;;4975765;28;20458;-67
2022/07/20 07:55:42;;;;;;;6.40;5.80;;;36.40;45.60;;;;;;4975387;28;20473;-66
2022/07/20 07:58:10;;;;;;;10.20;7.50;;;36.40;44.80;;;;;;4975596;28;20454;-66
2022/07/20 08:00:38;;;;;;;6.90;6.30;;;36.90;44.40;;;;;;4975199;28;20989;-66
2022/07/20 08:03:07;;;;;;;6.87;6.37;;;37.30;44.20;;;;;;4975412;28;20461;-67
2022/07/20 08:05:34;;;;;;;6.67;5.90;;;37.80;43.70;;;;;;4975342;28;20454;-67
2022/07/20 08:08:06;;;;;;;6.53;6.03;;;38.10;42.80;;;;;;4975332;28;20462;-67
2022/07/20 08:10:34;;;;;;;8.63;6.17;;;38.40;44.00;;;;;;4975366;28;20534;-66
2022/07/20 08:13:01;;;;;;;6.80;5.67;;;38.70;41.90;;;;;;4975220;28;20930;-67
2022/07/20 08:15:27;;;;;;;7.30;6.70;;;39.00;42.20;;;;;;4975144;28;20477;-67
2022/07/20 08:17:54;;;;;;;6.50;5.90;;;39.30;41.60;;;;;;4975268;28;20514;-67
2022/07/20 08:20:23;;;;;;;6.57;5.93;;;39.70;41.50;;;;;;4975078;28;20290;-66
2022/07/20 08:22:50;;;;;;;6.90;6.30;;;39.80;40.60;;;;;;4974904;28;20236;-67
2022/07/20 08:25:17;;;;;;;7.20;6.30;;;39.90;41.00;;;;;;4975133;28;20630;-67
2022/07/20 08:27:45;;;;;;;6.23;5.70;;;39.80;41.30;;;;;;4975145;28;20195;-67
2022/07/20 08:30:12;;;;;;;6.30;5.80;;;40.20;40.60;;;;;;4974667;28;20560;-66
2022/07/20 08:32:39;;;;;;;10.27;6.97;;;40.40;40.50;;;;;;4975093;28;20225;-68
2022/07/20 08:35:07;;;;;;;7.03;6.53;;;40.80;39.60;;;;;;4975251;28;20215;-67
2022/07/20 08:37:35;;;;;;;10.20;6.23;;;40.20;38.40;;;;;;4975631;28;20199;-67
2022/07/20 08:40:02;;;;;;;6.65;6.10;;;40.60;39.70;;;;;;4975091;28;20202;-68
2022/07/20 08:42:29;;;;;;;7.82;6.60;;;41.10;37.90;;;;;;4975876;28;20218;-67
2022/07/20 08:44:56;;;;;;;6.03;5.53;;;41.60;36.40;;;;;;4979069;28;20562;-67
2022/07/20 08:47:26;;;;;;;6.60;6.00;;;41.70;36.60;;;;;;4979486;28;20199;-67
2022/07/20 08:49:52;;;;;;;9.15;6.22;;;41.90;36.10;;;;;;4979203;28;20209;-67
2022/07/20 08:52:19;;;;;;;7.22;5.85;;;42.30;36.90;;;;;;4979084;28;20222;-69
2022/07/20 08:54:47;;;;;;;6.32;5.82;;;42.70;36.40;;;;;;4979244;28;20206;-68
2022/07/20 08:57:16;;;;;;;6.72;6.13;;;43.00;35.50;;;;;;4978556;28;20560;-67
2022/07/20 08:59:43;;;;;;;6.95;6.43;;;43.40;34.90;;;;;;4978893;28;20202;-67
2022/07/20 09:02:10;;;;;;;7.95;7.18;;;43.10;35.70;;;;;;4979110;28;20230;-67
2022/07/20 09:04:50;;;;;;;9.02;6.38;;;42.90;35.80;;;;;;4978983;28;20194;-68
2022/07/20 09:07:17;;;;;;;6.50;5.90;;;42.70;36.00;;;;;;4978834;28;20183;-67
2022/07/20 09:09:44;;;;;;;6.03;5.63;;;42.60;36.40;;;;;;4978310;28;20659;-67
2022/07/20 09:12:12;;;;;;;8.23;7.25;;;42.90;36.00;;;;;;4978324;28;20705;-68
2022/07/20 09:14:42;;;;;;;6.97;6.38;;;43.10;36.80;;;;;;4978544;28;20202;-68
2022/07/20 09:17:18;;;;;;;20.73;7.65;;;43.60;35.10;;;;;;4978417;28;20302;-67
2022/07/20 09:19:55;;;;;;;9.15;7.28;;;43.70;36.60;;;;;;4978241;28;20205;-70
2022/07/20 09:22:34;;;;;;;7.68;6.40;;;43.90;35.20;;;;;;4978423;28;20249;-68
2022/07/20 09:25:10;;;;;;;7.60;5.75;;;44.40;33.90;;;;;;4979133;28;20190;-68
2022/07/20 09:27:38;;;;;;;6.15;4.97;;;44.60;33.40;;;;;;4978648;28;20602;-67
2022/07/20 09:30:09;;;;;;;6.32;5.30;;;44.30;34.50;;;;;;4978355;28;20199;-68
2022/07/20 09:32:55;;;;;;;10.25;5.22;;;44.10;32.90;;;;;;4979030;28;20222;-67
2022/07/20 09:35:24;;;;;;;7.65;5.57;;;43.90;33.10;;;;;;4978442;28;20206;-68
2022/07/20 09:37:51;;;;;;;5.38;4.95;;;43.50;33.80;;;;;;4978370;28;20194;-67
2022/07/20 09:40:18;;;;;;;6.07;5.13;;;43.50;33.50;;;;;;4977862;28;20209;-66
2022/07/20 09:42:47;;;;;;;5.60;5.10;;;43.30;33.80;;;;;;4978152;28;20199;-66
2022/07/20 09:45:21;;;;;;;6.25;5.65;;;42.90;33.90;;;;;;4977905;28;20627;-67
2022/07/20 09:48:07;;;;;;;7.32;6.00;;;43.10;34.00;;;;;;4977974;28;20206;-67
2022/07/20 09:50:36;;;;;;;5.85;5.35;;;43.40;33.60;;;;;;4977382;28;20592;-67
2022/07/20 09:53:04;;;;;;;6.20;5.70;;;43.70;34.60;;;;;;4977337;28;20674;-67
2022/07/20 09:55:32;;;;;;;8.70;6.20;;;43.50;33.70;;;;;;4977544;28;20214;-67
2022/07/20 09:58:01;;;;;;;6.03;5.53;;;43.00;34.00;;;;;;4977807;28;20568;-67
2022/07/20 10:00:28;;;;;;;7.28;5.82;;;42.90;34.50;;;;;;4977549;28;20250;-67
2022/07/20 10:02:58;;;;;;;6.75;5.80;;;43.00;34.30;;;;;;4977703;28;20187;-67
2022/07/20 10:05:25;;;;;;;6.28;5.63;;;42.90;33.30;;;;;;4977529;28;20579;-66
2022/07/20 10:07:52;;;;;;;5.53;5.05;;;42.80;34.90;;;;;;4978386;28;20210;-67
2022/07/20 10:10:18;;;;;;;11.30;5.85;;;43.00;34.40;;;;;;4977361;28;20199;-67
2022/07/20 10:12:45;;;;;;;5.97;5.38;;;42.80;35.20;;;;;;4977424;28;20199;-66
2022/07/20 10:15:17;;;;;;;10.07;5.60;;;42.70;35.50;;;;;;4977271;28;20207;-67
2022/07/20 10:17:44;;;;;;;6.55;5.30;;;42.90;35.70;;;;;;4977372;28;20224;-67
2022/07/20 10:20:30;;;;;;;6.55;5.90;;;42.70;35.20;;;;;;4977219;28;20199;-66
2022/07/20 10:23:32;;;;;;;5.70;5.25;;;43.10;35.20;;;;;;4977265;28;20546;-66
2022/07/20 10:25:59;;;;;;;7.35;5.70;;;43.00;35.00;;;;;;4977759;28;20281;-66
2022/07/20 10:28:33;;;;;;;7.72;5.40;;;42.90;34.60;;;;;;4978052;28;20211;-66
2022/07/20 10:31:05;;;;;;;6.28;5.68;;;42.30;34.80;;;;;;4977865;28;20777;-67
2022/07/20 10:33:34;;;;;;;6.38;5.70;;;41.80;35.40;;;;;;4977586;28;20189;-66
2022/07/20 10:38:57;;;;;;;6.03;5.55;;;41.50;34.80;;;;;;4978064;28;20637;-66
2022/07/20 10:41:32;;;;;;;6.45;5.85;;;41.70;35.70;;;;;;4977949;28;20223;-64
2022/07/20 10:44:30;;;;;;;7.88;5.30;;;41.20;35.50;;;;;;4977898;28;20179;-64
2022/07/20 10:46:58;;;;;;;6.03;5.45;;;41.80;36.10;;;;;;4977166;28;20180;-64
2022/07/20 10:49:59;;;;;;;6.35;5.90;;;42.10;37.10;;;;;;4982734;28;20206;-64
2022/07/20 10:52:27;;;;;;;6.07;5.57;;;42.50;35.70;;;;;;4982003;28;20222;-65
2022/07/20 10:54:54;;;;;;;6.63;6.00;;;42.70;35.90;;;;;;4985081;28;20230;-65
2022/07/20 10:57:21;;;;;;;8.93;6.15;;;42.90;36.10;;;;;;4981096;28;20230;-64
2022/07/20 11:00:01;;;;;;;8.50;6.32;;;42.70;34.90;;;;;;4984457;28;20206;-65
2022/07/20 11:02:32;;;;;;;6.22;5.82;;;43.20;35.60;;;;;;4983033;28;20233;-64
2022/07/20 11:04:59;;;;;;;6.25;5.70;;;43.40;34.50;;;;;;4981845;28;20186;-64
2022/07/20 11:07:32;;;;;;;7.60;6.20;;;43.70;34.50;;;;;;4977824;28;20195;-64
2022/07/20 11:10:00;;;;;;;6.10;5.55;;;43.90;34.40;;;;;;4976800;28;20222;-64
2022/07/20 11:12:28;;;;;;;7.60;6.88;;;44.00;33.90;;;;;;4976488;28;20555;-63
2022/07/20 11:14:56;;;;;;;6.68;5.63;;;44.30;35.00;;;;;;4976484;28;20326;-65
2022/07/20 11:17:23;;;;;;;8.48;7.03;;;44.40;33.90;;;;;;4976375;28;20229;-65
2022/07/20 11:19:51;;;;;;;6.53;5.90;;;44.30;34.40;;;;;;4979528;28;20544;-65
2022/07/20 11:22:19;;;;;;;6.55;6.15;;;44.30;34.10;;;;;;4977517;28;20221;-64
2022/07/20 11:24:54;;;;;;;6.38;5.88;;;43.80;34.90;;;;;;4979387;28;20194;-65
2022/07/20 11:27:21;;;;;;;6.50;5.88;;;43.80;35.10;;;;;;4976250;28;20719;-65
2022/07/20 11:29:49;;;;;;;6.60;6.07;;;43.60;35.20;;;;;;4976024;28;20205;-65
2022/07/20 11:32:16;;;;;;;6.90;6.00;;;42.90;34.70;;;;;;4976057;28;20219;-65
2022/07/20 11:34:48;;;;;;;7.28;6.53;;;42.20;35.30;;;;;;4976006;28;20210;-65
2022/07/20 11:37:18;;;;;;;6.18;5.65;;;41.90;36.40;;;;;;4975831;28;20214;-64
2022/07/20 11:39:45;;;;;;;6.57;5.97;;;41.90;36.80;;;;;;4975911;28;20203;-65
2022/07/20 11:42:13;;;;;;;10.95;6.47;;;41.80;37.20;;;;;;4975797;28;20226;-65
2022/07/20 11:44:40;;;;;;;7.20;6.55;;;41.90;37.70;;;;;;4977564;28;20285;-64
2022/07/20 11:47:07;;;;;;;10.32;7.05;;;41.80;36.40;;;;;;4980537;28;20199;-64
2022/07/20 11:49:34;;;;;;;7.28;6.78;;;41.70;36.80;;;;;;4977998;28;20203;-64
2022/07/20 11:52:05;;;;;;;7.53;6.82;;;41.50;37.10;;;;;;4978544;28;20313;-65
2022/07/20 11:54:37;;;;;;;7.70;7.10;;;40.80;37.30;;;;;;4977124;28;20187;-64
2022/07/20 11:57:06;;;;;;;7.37;6.80;;;40.50;38.30;;;;;;4976398;28;20210;-65
2022/07/20 11:59:34;;;;;;;10.37;6.50;;;40.20;38.50;;;;;;4975915;28;20195;-65
2022/07/20 12:02:01;;;;;;;6.70;6.20;;;39.90;39.10;;;;;;4975274;28;20226;-65
2022/07/20 12:04:29;;;;;;;6.90;6.30;;;39.80;38.00;;;;;;4975684;28;20203;-65
2022/07/20 12:06:57;;;;;;;8.03;6.33;;;39.50;38.90;;;;;;4975570;28;20226;-64
2022/07/20 12:09:34;;;;;;;7.67;6.47;;;39.60;38.40;;;;;;4975571;28;20458;-65
2022/07/20 12:12:03;;;;;;;8.93;7.20;;;39.40;39.10;;;;;;4975746;28;20578;-64
2022/07/20 12:14:32;;;;;;;6.77;6.13;;;39.60;39.50;;;;;;4975629;28;20250;-64
2022/07/20 12:17:11;;;;;;;7.00;6.60;;;39.60;38.30;;;;;;4975931;28;20478;-65
2022/07/20 12:19:39;;;;;;;8.30;6.70;;;39.20;39.60;;;;;;4976745;28;20661;-64
2022/07/20 12:22:06;;;;;;;9.53;7.27;;;39.20;39.00;;;;;;4976756;28;20478;-65
2022/07/20 12:24:53;;;;;;;7.70;7.10;;;39.40;40.20;;;;;;4976107;28;20458;-64
2022/07/20 12:27:20;;;;;;;8.20;7.40;;;39.30;40.40;;;;;;4976104;28;20184;-64
2022/07/20 12:29:47;;;;;;;10.63;6.83;;;39.30;39.80;;;;;;4976035;28;20198;-64
2022/07/20 12:32:16;;;;;;;7.30;6.63;;;39.20;40.50;;;;;;4975906;28;20473;-65
2022/07/20 12:34:50;;;;;;;8.03;7.53;;;39.40;40.40;;;;;;4975665;28;20198;-65
2022/07/20 12:37:17;;;;;;;8.67;7.97;;;39.30;40.00;;;;;;4976610;28;20478;-64
2022/07/20 12:39:47;;;;;;;7.93;7.33;;;39.30;40.20;;;;;;4976362;28;20682;-64
2022/07/20 12:42:19;;;;;;;9.53;8.60;;;39.30;39.80;;;;;;4975825;28;20222;-64
2022/07/20 12:44:47;;;;;;;11.40;9.87;;;39.20;40.50;;;;;;4976053;28;20478;-64
2022/07/20 12:47:15;;;;;;;11.93;10.93;;;39.10;41.70;;;;;;4975742;28;20222;-64
2022/07/20 12:49:42;;;;;;;12.17;10.10;;;39.10;42.30;;;;;;4975304;28;20446;-65
2022/07/20 12:52:08;;;;;;;11.87;10.97;;;39.30;42.80;;;;;;4975126;28;20478;-64
2022/07/20 12:54:35;;;;;;;10.67;9.87;;;39.30;42.40;;;;;;4975627;28;20199;-64
2022/07/20 12:57:02;;;;;;;10.67;9.87;;;39.40;43.60;;;;;;4975151;28;20218;-65
2022/07/20 12:59:30;;;;;;;13.43;11.67;;;39.50;42.20;;;;;;4975086;28;20210;-64
2022/07/20 13:01:57;;;;;;;11.03;10.13;;;39.50;41.80;;;;;;4974891;28;20603;-64
2022/07/20 13:04:25;;;;;;;17.20;11.50;;;39.20;41.40;;;;;;4975044;28;20695;-65
2022/07/20 13:06:54;;;;;;;11.50;10.60;;;38.90;41.70;;;;;;4975875;28;20461;-64
2022/07/20 13:09:23;;;;;;;15.43;11.33;;;38.50;42.10;;;;;;4975001;28;20484;-65
2022/07/20 13:11:50;;;;;;;11.17;10.30;;;37.90;42.80;;;;;;4975303;28;20528;-65
2022/07/20 13:14:19;;;;;;;12.23;11.20;;;37.60;43.70;;;;;;4974838;28;20466;-64
2022/07/20 13:16:49;;;;;;;11.97;10.97;;;37.40;43.70;;;;;;4974781;28;20478;-64
2022/07/20 13:19:16;;;;;;;12.07;11.00;;;37.10;43.70;;;;;;4978517;28;20446;-64
2022/07/20 13:21:43;;;;;;;12.90;11.60;;;36.80;44.50;;;;;;4977437;28;20474;-64
2022/07/20 13:24:11;;;;;;;16.60;15.07;;;36.60;45.80;;;;;;4975634;28;20893;-64
2022/07/20 13:26:38;;;;;;;16.80;15.33;;;36.40;47.70;;;;;;4974552;28;20941;-64
2022/07/20 13:29:05;;;;;;;17.00;15.47;;;36.10;48.40;;;;;;4976629;28;20461;-64
2022/07/20 13:31:33;;;;;;;15.60;14.30;;;35.90;49.20;;;;;;4982420;28;20469;-64
2022/07/20 13:34:01;;;;;;;16.27;14.20;;;35.50;49.50;;;;;;4980502;28;20967;-64
2022/07/20 13:36:28;;;;;;;18.83;15.00;;;35.10;50.10;;;;;;4980434;28;20458;-64
2022/07/20 13:38:55;;;;;;;15.97;14.40;;;34.80;50.80;;;;;;4980202;28;20453;-65
2022/07/20 13:41:22;;;;;;;15.23;14.00;;;34.40;50.80;;;;;;4979207;28;20550;-66
2022/07/20 13:43:49;;;;;;;14.55;12.60;;;34.20;51.00;;;;;;4978716;28;20462;-66
2022/07/20 13:46:16;;;;;;;14.90;13.50;;;34.00;51.70;;;;;;4980050;28;20195;-66
2022/07/20 13:48:44;;;;;;;17.13;13.97;;;33.80;51.70;;;;;;4978892;28;20458;-65
2022/07/20 13:51:12;;;;;;;16.83;15.10;;;33.50;52.30;;;;;;4979086;28;20525;-66
2022/07/20 13:53:39;;;;;;;15.63;13.60;;;33.30;52.90;;;;;;4979708;28;20548;-66
2022/07/20 13:56:08;;;;;;;16.80;15.00;;;33.20;53.30;;;;;;4979471;28;20480;-66
2022/07/20 13:58:35;;;;;;;17.27;15.63;;;33.10;53.80;;;;;;4979321;28;20485;-66
2022/07/20 14:01:02;;;;;;;19.50;15.80;;;33.00;54.10;;;;;;4978183;28;20481;-65
2022/07/20 14:03:28;;;;;;;20.57;14.07;;;32.90;54.70;;;;;;4978620;28;20485;-66
2022/07/20 14:05:55;;;;;;;16.80;14.50;;;32.90;54.40;;;;;;4979153;28;20454;-66
2022/07/20 14:08:24;;;;;;;16.47;14.93;;;32.90;55.20;;;;;;4978558;28;20462;-65
2022/07/20 14:10:52;;;;;;;16.00;14.70;;;33.00;55.80;;;;;;4978650;28;20478;-66
2022/07/20 14:13:19;;;;;;;23.13;15.10;;;33.10;55.60;;;;;;4979350;28;20517;-65
2022/07/20 14:15:45;;;;;;;17.27;15.80;;;33.20;56.00;;;;;;4979351;28;20458;-65
2022/07/20 14:18:12;;;;;;;17.63;15.40;;;33.20;55.00;;;;;;4979038;28;20846;-66
2022/07/20 14:20:40;;;;;;;15.90;14.60;;;33.30;55.70;;;;;;4978551;28;20843;-66
2022/07/20 14:23:07;;;;;;;17.13;15.63;;;33.40;55.20;;;;;;4980388;28;20575;-65
2022/07/20 14:25:36;;;;;;;17.03;15.43;;;33.40;55.40;;;;;;4981505;28;20458;-65
2022/07/20 14:28:03;;;;;;;16.63;15.20;;;33.30;55.20;;;;;;4979641;28;20447;-65
2022/07/20 14:30:30;;;;;;;16.80;15.40;;;33.30;55.20;;;;;;4978925;28;20458;-66
2022/07/20 14:32:57;;;;;;;18.60;15.47;;;33.30;54.90;;;;;;4979928;28;20795;-66
2022/07/20 14:35:24;;;;;;;15.20;14.00;;;33.30;55.30;;;;;;4982218;28;20454;-66
2022/07/20 14:37:50;;;;;;;15.87;14.57;;;33.40;55.40;;;;;;4980025;28;20484;-65
2022/07/20 14:40:17;;;;;;;16.60;14.93;;;33.40;55.00;;;;;;4978498;28;20946;-66
2022/07/20 14:42:45;;;;;;;17.07;15.57;;;33.40;55.10;;;;;;4978318;28;20545;-66
2022/07/20 14:45:12;;;;;;;16.03;14.40;;;33.50;55.40;;;;;;4977635;28;20469;-66
2022/07/20 14:47:39;;;;;;;21.23;15.53;;;33.50;55.20;;;;;;4980555;28;20942;-66
2022/07/20 14:50:07;;;;;;;17.93;15.40;;;33.70;54.90;;;;;;4980248;28;20457;-67
2022/07/20 14:52:34;;;;;;;18.87;14.90;;;33.80;55.30;;;;;;4978929;28;20978;-66
2022/07/20 14:55:00;;;;;;;16.93;14.80;;;33.80;54.80;;;;;;4979260;28;20473;-66
2022/07/20 14:57:27;;;;;;;17.17;15.00;;;33.80;54.60;;;;;;4978151;28;20484;-66
2022/07/20 14:59:57;;;;;;;18.23;15.23;;;33.80;55.10;;;;;;4978231;28;20450;-66
2022/07/20 15:02:24;;;;;;;16.50;15.30;;;33.80;54.50;;;;;;4978165;28;20524;-66
2022/07/20 15:04:52;;;;;;;26.03;15.77;;;33.80;55.40;;;;;;4978516;28;20461;-66
2022/07/20 15:07:19;;;;;;;16.73;15.33;;;33.90;54.90;;;;;;4978508;28;20454;-66
2022/07/20 15:09:45;;;;;;;17.27;14.90;;;34.00;55.10;;;;;;4978879;28;20454;-66
2022/07/20 15:12:12;;;;;;;16.97;15.27;;;34.10;55.10;;;;;;4978668;28;20498;-65
2022/07/20 15:14:39;;;;;;;17.37;15.97;;;34.10;54.40;;;;;;4978918;28;20461;-66
2022/07/20 15:17:07;;;;;;;15.83;14.30;;;34.10;54.50;;;;;;4978677;28;21031;-65
2022/07/20 15:19:33;;;;;;;18.57;16.70;;;34.10;54.40;;;;;;4977977;28;20578;-66
2022/07/20 15:22:00;;;;;;;17.83;16.10;;;34.10;54.80;;;;;;4977651;28;20501;-65
2022/07/20 15:24:27;;;;;;;16.10;14.77;;;34.10;54.90;;;;;;4978421;28;20868;-66
2022/07/20 15:26:54;;;;;;;23.00;15.87;;;34.20;54.90;;;;;;4977838;28;20531;-67
2022/07/20 15:29:21;;;;;;;18.13;15.03;;;34.30;54.40;;;;;;4976016;28;20458;-66
2022/07/20 15:31:47;;;;;;;18.90;15.50;;;34.40;54.10;;;;;;4976425;28;20481;-66
2022/07/20 15:34:15;;;;;;;18.00;16.20;;;34.50;54.20;;;;;;4975894;28;20461;-66
2022/07/20 15:36:42;;;;;;;16.93;15.37;;;34.70;55.40;;;;;;4976274;28;20458;-67
2022/07/20 15:39:09;;;;;;;17.43;16.07;;;34.80;55.30;;;;;;4976038;28;20505;-66
2022/07/20 15:41:36;;;;;;;17.77;16.27;;;34.80;54.90;;;;;;4976168;28;20474;-66
2022/07/20 15:44:03;;;;;;;17.30;15.90;;;34.80;54.60;;;;;;4976027;28;20454;-66
2022/07/20 15:46:30;;;;;;;19.03;16.23;;;34.80;55.50;;;;;;4975645;28;20937;-65
2022/07/20 15:48:56;;;;;;;17.43;15.93;;;34.80;54.70;;;;;;4975826;28;20460;-65
2022/07/20 15:51:24;;;;;;;17.97;16.50;;;34.80;55.60;;;;;;4975157;28;20993;-65
2022/07/20 15:53:51;;;;;;;16.50;15.07;;;34.80;53.60;;;;;;4975935;28;20955;-65
2022/07/20 15:56:18;;;;;;;16.93;15.23;;;34.90;53.10;;;;;;4976793;28;20454;-65
2022/07/20 15:58:45;;;;;;;16.73;15.10;;;35.00;53.40;;;;;;4976033;28;20836;-66
2022/07/20 16:01:12;;;;;;;14.60;13.23;;;35.00;53.50;;;;;;4975873;28;20509;-65
2022/07/20 16:03:39;;;;;;;19.50;14.70;;;35.20;54.00;;;;;;4976049;28;20461;-65
2022/07/20 16:06:06;;;;;;;18.60;14.70;;;35.30;53.50;;;;;;4990868;28;20454;-66
2022/07/20 16:08:34;;;;;;;15.63;14.23;;;35.30;52.60;;;;;;4989306;28;20454;-65
2022/07/20 16:11:01;;;;;;;16.30;14.90;;;35.40;52.90;;;;;;4987014;28;20469;-65
2022/07/20 16:13:27;;;;;;;17.13;15.47;;;35.30;52.30;;;;;;4988546;28;20458;-65
2022/07/20 16:15:54;;;;;;;15.43;13.93;;;35.30;52.10;;;;;;4989824;28;20457;-66
2022/07/20 16:18:21;;;;;;;16.27;14.80;;;35.30;52.50;;;;;;4977078;28;20568;-65
2022/07/20 16:20:47;;;;;;;15.93;14.40;;;35.30;52.30;;;;;;4976304;28;20478;-65
2022/07/20 16:23:15;;;;;;;16.40;14.80;;;35.30;52.30;;;;;;4975865;28;20453;-65
2022/07/20 16:25:43;;;;;;;15.57;14.23;;;35.20;52.30;;;;;;4975437;28;20458;-66
2022/07/20 16:28:11;;;;;;;16.50;14.87;;;35.20;52.40;;;;;;4975729;28;20454;-65
2022/07/20 16:30:37;;;;;;;15.93;14.53;;;35.30;52.60;;;;;;4975718;28;20478;-63
2022/07/20 16:33:04;;;;;;;15.90;14.40;;;35.20;52.80;;;;;;4975594;28;20461;-65
2022/07/20 16:35:31;;;;;;;17.00;15.47;;;35.20;52.70;;;;;;4975713;28;20468;-65
2022/07/20 16:37:57;;;;;;;16.43;14.73;;;35.10;53.10;;;;;;4975615;28;20478;-65
2022/07/20 16:40:24;;;;;;;17.67;15.97;;;35.00;52.60;;;;;;4975151;28;20450;-64
2022/07/20 16:42:52;;;;;;;16.90;15.67;;;34.80;53.20;;;;;;4976265;28;20454;-65
2022/07/20 16:45:19;;;;;;;20.13;17.10;;;34.70;53.30;;;;;;4975999;28;20450;-65
2022/07/20 16:47:46;;;;;;;17.83;15.90;;;34.50;53.60;;;;;;4975681;28;20454;-65
2022/07/20 16:50:13;;;;;;;17.27;15.53;;;34.30;54.30;;;;;;4975067;28;20454;-65